createdAt,value
2022-08-07T00:01:44.121Z,16.01
2022-08-07T00:04:05.804Z,16.04
2022-08-07T00:06:33.792Z,16.00
2022-08-07T00:09:16.235Z,16.00
2022-08-07T00:11:53.862Z,16.00
2022-08-07T00:14:21.751Z,15.99
2022-08-07T00:16:52.125Z,16.00
2022-08-07T00:19:21.357Z,15.99
2022-08-07T00:21:55.315Z,15.99
2022-08-07T00:24:22.078Z,15.96
2022-08-07T00:27:06.771Z,15.96
2022-08-07T00:29:37.182Z,15.97
2022-08-07T00:32:05.874Z,15.96
2022-08-07T00:34:33.232Z,15.93
2022-08-07T00:37:02.214Z,15.92
2022-08-07T00:39:34.373Z,15.92
2022-08-07T00:42:05.439Z,15.92
2022-08-07T00:44:34.186Z,15.91
2022-08-07T00:47:06.589Z,15.89
2022-08-07T00:50:19.725Z,15.88
2022-08-07T00:52:37.829Z,15.89
2022-08-07T00:55:10.654Z,15.87
2022-08-07T00:57:37.103Z,15.85
2022-08-07T01:00:05.472Z,15.83
2022-08-07T01:02:32.144Z,15.83
2022-08-07T01:04:59.411Z,15.81
2022-08-07T01:07:28.371Z,15.83
2022-08-07T01:10:05.811Z,15.85
2022-08-07T01:12:34.854Z,15.83
2022-08-07T01:15:04.085Z,15.84
2022-08-07T01:17:32.114Z,15.81
2022-08-07T01:20:06.728Z,15.81
2022-08-07T01:22:38.232Z,15.77
2022-08-07T01:25:53.945Z,15.76
2022-08-07T01:28:02.897Z,15.76
2022-08-07T01:30:31.681Z,15.77
2022-08-07T01:32:58.689Z,15.75
2022-08-07T01:35:52.610Z,15.76
2022-08-07T01:38:25.017Z,15.77
2022-08-07T01:40:58.376Z,15.75
2022-08-07T01:43:26.972Z,15.73
2022-08-07T01:46:02.369Z,15.74
2022-08-07T01:48:31.811Z,15.74
2022-08-07T01:51:24.273Z,15.75
2022-08-07T01:54:09.534Z,15.73
2022-08-07T01:56:59.816Z,15.71
2022-08-07T01:59:31.582Z,15.72
2022-08-07T02:02:06.342Z,15.71
2022-08-07T02:04:36.582Z,15.70
2022-08-07T02:07:06.280Z,15.70
2022-08-07T02:09:51.604Z,15.67
2022-08-07T02:12:29.036Z,15.62
2022-08-07T02:14:58.070Z,15.65
2022-08-07T02:17:35.503Z,15.67
2022-08-07T02:20:09.690Z,15.69
2022-08-07T02:22:45.446Z,15.68
2022-08-07T02:25:17.691Z,15.70
2022-08-07T02:27:56.033Z,15.69
2022-08-07T02:30:23.678Z,15.68
2022-08-07T02:33:00.521Z,15.69
2022-08-07T02:36:28.481Z,15.71
2022-08-07T02:38:31.784Z,15.68
2022-08-07T02:41:03.694Z,15.67
2022-08-07T02:43:34.722Z,15.66
2022-08-07T02:46:03.830Z,15.69
2022-08-07T02:48:32.772Z,15.69
2022-08-07T02:51:29.060Z,15.68
2022-08-07T02:53:56.487Z,15.67
2022-08-07T02:56:29.611Z,15.66
2022-08-07T02:59:01.584Z,15.66
2022-08-07T03:01:36.535Z,15.65
2022-08-07T03:04:13.990Z,15.65
2022-08-07T03:06:44.850Z,15.65
2022-08-07T03:09:13.294Z,15.67
2022-08-07T03:11:52.713Z,15.67
2022-08-07T03:14:30.100Z,15.62
2022-08-07T03:16:57.554Z,15.62
2022-08-07T03:19:24.680Z,15.62
2022-08-07T03:21:58.729Z,15.62
2022-08-07T03:24:28.023Z,15.62
2022-08-07T03:27:03.061Z,15.61
2022-08-07T03:29:49.547Z,15.61
2022-08-07T03:32:24.079Z,15.60
2022-08-07T03:35:01.018Z,15.60
2022-08-07T03:37:46.264Z,15.61
2022-08-07T03:40:23.564Z,15.60
2022-08-07T03:42:55.234Z,15.61
2022-08-07T03:45:30.623Z,15.61
2022-08-07T03:48:09.919Z,15.60
2022-08-07T03:50:38.201Z,15.59
2022-08-07T03:53:06.855Z,15.59
2022-08-07T03:55:53.420Z,15.60
2022-08-07T03:58:33.954Z,15.59
2022-08-07T04:01:15.013Z,15.59
2022-08-07T04:03:53.330Z,15.59
2022-08-07T04:06:37.830Z,15.57
2022-08-07T04:09:15.390Z,15.58
2022-08-07T04:12:24.667Z,15.58
2022-08-07T04:14:38.519Z,15.57
2022-08-07T04:17:20.051Z,15.59
2022-08-07T04:19:52.795Z,15.57
2022-08-07T04:22:27.560Z,15.58
2022-08-07T04:25:01.401Z,15.57
2022-08-07T04:27:35.617Z,15.57
2022-08-07T04:30:11.699Z,15.57
2022-08-07T04:32:58.937Z,15.57
2022-08-07T04:35:35.438Z,15.57
2022-08-07T04:38:11.499Z,15.56
2022-08-07T04:40:52.878Z,15.51
2022-08-07T04:44:10.648Z,15.53
2022-08-07T04:46:34.824Z,15.54
2022-08-07T04:49:24.212Z,15.51
2022-08-07T04:52:07.113Z,15.51
2022-08-07T04:54:42.028Z,15.51
2022-08-07T04:58:14.294Z,15.46
2022-08-07T05:00:31.795Z,15.47
2022-08-07T05:03:16.702Z,15.49
2022-08-07T05:06:16.315Z,15.51
2022-08-07T05:09:04.036Z,15.49
2022-08-07T05:11:57.603Z,15.48
2022-08-07T05:14:54.651Z,15.51
2022-08-07T05:17:51.467Z,15.49
2022-08-07T05:20:17.447Z,15.52
2022-08-07T05:22:48.983Z,15.51
2022-08-07T05:25:25.602Z,15.49
2022-08-07T05:28:20.192Z,15.48
2022-08-07T05:30:48.865Z,15.48
2022-08-07T05:33:18.011Z,15.48
2022-08-07T05:35:50.008Z,15.49
2022-08-07T05:39:00.770Z,15.51
2022-08-07T05:41:05.492Z,15.51
2022-08-07T05:44:07.945Z,15.52
2022-08-07T05:46:30.419Z,15.57
2022-08-07T05:48:59.695Z,15.55
2022-08-07T05:51:31.473Z,15.57
2022-08-07T05:54:12.184Z,15.57
2022-08-07T05:56:47.296Z,15.52
2022-08-07T05:59:19.088Z,15.51
2022-08-07T06:01:51.097Z,15.51
2022-08-07T06:04:20.733Z,15.54
2022-08-07T06:06:56.658Z,15.57
2022-08-07T06:10:03.209Z,15.60
2022-08-07T06:12:16.809Z,15.61
2022-08-07T06:14:49.525Z,15.65
2022-08-07T06:17:19.030Z,15.63
2022-08-07T06:20:03.370Z,15.65
2022-08-07T06:22:38.876Z,15.61
2022-08-07T06:25:24.425Z,15.63
2022-08-07T06:28:04.994Z,15.67
2022-08-07T06:30:37.963Z,15.71
2022-08-07T06:33:16.053Z,15.72
2022-08-07T06:36:12.103Z,15.72
2022-08-07T06:38:37.015Z,15.74
2022-08-07T06:41:12.953Z,15.77
2022-08-07T06:43:46.394Z,15.77
2022-08-07T06:46:20.385Z,15.80
2022-08-07T06:49:00.020Z,15.77
2022-08-07T06:51:34.128Z,15.77
2022-08-07T06:55:28.647Z,15.76
2022-08-07T06:56:58.354Z,15.76
2022-08-07T07:00:13.717Z,15.75
2022-08-07T07:02:48.816Z,15.75
2022-08-07T07:05:12.745Z,15.81
2022-08-07T07:07:58.498Z,15.83
2022-08-07T07:10:32.979Z,15.83
2022-08-07T07:13:05.701Z,15.85
2022-08-07T07:15:43.900Z,15.87
2022-08-07T07:18:47.848Z,15.88
2022-08-07T07:22:04.066Z,15.91
2022-08-07T07:24:16.768Z,15.88
2022-08-07T07:26:49.633Z,15.89
2022-08-07T07:29:39.079Z,15.92
2022-08-07T07:32:11.565Z,15.91
2022-08-07T07:34:43.389Z,15.91
2022-08-07T07:37:21.429Z,15.89
2022-08-07T07:40:03.468Z,15.90
2022-08-07T07:42:38.000Z,15.97
2022-08-07T07:45:06.482Z,15.99
2022-08-07T07:47:51.751Z,16.02
2022-08-07T07:50:34.146Z,16.02
2022-08-07T07:53:20.561Z,16.03
2022-08-07T07:55:54.627Z,16.05
2022-08-07T07:58:29.368Z,16.05
2022-08-07T08:00:58.312Z,16.07
2022-08-07T08:04:10.705Z,16.10
2022-08-07T08:06:13.244Z,16.11
2022-08-07T08:08:42.403Z,16.14
2022-08-07T08:11:16.326Z,16.13
2022-08-07T08:13:56.690Z,16.16
2022-08-07T08:16:50.288Z,16.17
2022-08-07T08:20:18.223Z,16.19
2022-08-07T08:22:32.894Z,16.21
2022-08-07T08:25:27.022Z,16.22
2022-08-07T08:28:11.979Z,16.27
2022-08-07T08:30:51.054Z,16.28
2022-08-07T08:33:24.571Z,16.29
2022-08-07T08:35:57.250Z,16.32
2022-08-07T08:38:29.983Z,16.34
2022-08-07T08:41:13.120Z,16.36
2022-08-07T08:43:58.908Z,16.40
2022-08-07T08:46:36.854Z,16.43
2022-08-07T08:49:32.987Z,16.41
2022-08-07T08:52:21.976Z,16.42
2022-08-07T08:55:01.234Z,16.41
2022-08-07T08:57:39.699Z,16.40
2022-08-07T09:00:08.616Z,16.41
2022-08-07T09:02:41.902Z,16.44
2022-08-07T09:05:36.931Z,16.43
2022-08-07T09:08:24.290Z,16.42
2022-08-07T09:11:10.206Z,16.44
2022-08-07T09:14:10.581Z,16.47
2022-08-07T09:16:46.531Z,16.49
2022-08-07T09:19:53.388Z,16.50
2022-08-07T09:24:33.578Z,16.51
2022-08-07T09:25:33.030Z,16.54
2022-08-07T09:28:06.071Z,16.60
2022-08-07T09:31:07.353Z,16.59
2022-08-07T09:33:57.906Z,16.58
2022-08-07T09:36:43.067Z,16.62
2022-08-07T09:39:53.103Z,16.63
2022-08-07T09:42:50.484Z,16.65
2022-08-07T09:47:27.625Z,16.67
2022-08-07T09:48:55.849Z,16.66
2022-08-07T09:52:15.997Z,16.66
2022-08-07T09:54:22.467Z,16.67
2022-08-07T09:57:25.437Z,16.72
2022-08-07T10:00:14.759Z,16.76
2022-08-07T10:03:08.350Z,16.82
2022-08-07T10:06:06.474Z,16.81
2022-08-07T10:09:15.173Z,16.82
2022-08-07T10:12:21.773Z,16.85
2022-08-07T10:15:23.026Z,16.86
2022-08-07T10:18:26.511Z,16.86
2022-08-07T10:22:13.990Z,16.88
2022-08-07T10:24:50.043Z,16.86
2022-08-07T10:27:24.395Z,16.87
2022-08-07T10:30:12.189Z,16.88
2022-08-07T10:33:04.617Z,16.89
2022-08-07T10:35:55.982Z,16.87
2022-08-07T10:38:42.132Z,16.89
2022-08-07T10:41:53.169Z,16.90
2022-08-07T10:44:58.957Z,16.93
2022-08-07T10:47:53.241Z,16.96
2022-08-07T10:50:25.949Z,16.99
2022-08-07T10:53:21.532Z,16.98
2022-08-07T10:56:20.965Z,17.00
2022-08-07T10:59:13.615Z,16.99
2022-08-07T11:01:51.979Z,17.02
2022-08-07T11:04:58.576Z,17.03
2022-08-07T11:08:03.492Z,17.07
2022-08-07T11:10:52.391Z,17.11
2022-08-07T11:14:43.826Z,17.13
2022-08-07T11:17:07.124Z,17.11
2022-08-07T11:20:03.352Z,17.10
2022-08-07T11:22:46.009Z,17.16
2022-08-07T11:25:23.260Z,17.17
2022-08-07T11:28:03.138Z,17.18
2022-08-07T11:30:51.034Z,17.19
2022-08-07T11:33:48.755Z,17.20
2022-08-07T11:36:38.802Z,17.22
2022-08-07T11:39:39.820Z,17.23
2022-08-07T11:42:30.478Z,17.22
2022-08-07T11:45:35.387Z,17.24
2022-08-07T11:48:18.294Z,17.25
2022-08-07T11:51:04.291Z,17.35
2022-08-07T11:54:13.095Z,17.52
2022-08-07T11:56:53.178Z,17.61
2022-08-07T12:00:10.896Z,17.60
2022-08-07T12:03:41.457Z,17.81
2022-08-07T12:06:36.878Z,17.73
2022-08-07T12:09:23.357Z,18.15
2022-08-07T12:12:18.254Z,19.67
2022-08-07T12:15:01.165Z,18.91
2022-08-07T12:17:59.397Z,18.26
2022-08-07T12:20:37.660Z,17.96
2022-08-07T12:23:08.978Z,17.85
2022-08-07T12:26:21.483Z,17.80
2022-08-07T12:28:53.136Z,17.77
2022-08-07T12:31:53.237Z,17.78
2022-08-07T12:34:28.407Z,17.77
2022-08-07T12:36:56.353Z,17.79
2022-08-07T12:39:44.847Z,17.78
2022-08-07T12:42:15.139Z,17.74
2022-08-07T12:44:45.733Z,17.73
2022-08-07T12:47:39.713Z,17.74
2022-08-07T12:50:34.268Z,17.76
2022-08-07T12:53:21.950Z,17.79
2022-08-07T12:56:28.468Z,17.78
2022-08-07T12:58:57.192Z,17.80
2022-08-07T13:01:43.273Z,17.83
2022-08-07T13:05:01.090Z,17.83
2022-08-07T13:08:13.539Z,17.84
2022-08-07T13:11:19.442Z,17.85
2022-08-07T13:14:09.473Z,17.88
2022-08-07T13:17:09.276Z,17.89
2022-08-07T13:19:51.600Z,17.94
2022-08-07T13:22:30.154Z,17.95
2022-08-07T13:25:06.008Z,18.00
2022-08-07T13:28:12.552Z,19.18
2022-08-07T13:30:48.991Z,18.82
2022-08-07T13:34:29.942Z,18.62
2022-08-07T13:36:25.843Z,18.50
2022-08-07T13:39:00.316Z,19.28
2022-08-07T13:41:41.887Z,19.12
2022-08-07T13:44:10.642Z,19.05
2022-08-07T13:46:49.712Z,18.71
2022-08-07T13:50:34.065Z,18.79
2022-08-07T13:52:31.640Z,18.57
2022-08-07T13:54:56.621Z,18.80
2022-08-07T13:57:32.192Z,18.58
2022-08-07T14:00:08.367Z,18.46
2022-08-07T14:02:55.881Z,18.36
2022-08-07T14:05:22.815Z,18.32
2022-08-07T14:08:00.960Z,18.27
2022-08-07T14:10:42.473Z,18.24
2022-08-07T14:13:16.390Z,18.22
2022-08-07T14:15:51.305Z,18.19
2022-08-07T14:18:28.818Z,18.14
2022-08-07T14:22:02.345Z,18.15
2022-08-07T14:24:33.632Z,18.15
2022-08-07T14:28:09.507Z,18.15
2022-08-07T14:30:05.623Z,18.19
2022-08-07T14:32:58.410Z,18.21
2022-08-07T14:35:45.023Z,18.24
2022-08-07T14:38:26.578Z,18.25
2022-08-07T14:41:04.885Z,18.27
2022-08-07T14:43:58.740Z,18.29
2022-08-07T14:49:55.844Z,18.29
2022-08-07T14:52:03.929Z,18.30
2022-08-07T14:54:42.238Z,18.30
2022-08-07T15:00:06.274Z,18.26
2022-08-07T15:02:37.063Z,18.27
2022-08-07T15:05:04.671Z,18.28
2022-08-07T15:07:51.805Z,18.29
2022-08-07T15:10:29.700Z,18.32
2022-08-07T15:13:00.732Z,18.30
2022-08-07T15:15:43.329Z,18.32
2022-08-07T15:18:40.231Z,18.32
2022-08-07T15:21:58.512Z,18.52
2022-08-07T15:25:14.523Z,18.64
2022-08-07T15:27:03.231Z,18.50
2022-08-07T15:30:08.530Z,18.43
2022-08-07T15:32:39.545Z,18.37
2022-08-07T15:35:16.800Z,18.36
2022-08-07T15:38:17.812Z,18.35
2022-08-07T15:40:37.702Z,18.32
2022-08-07T15:46:32.204Z,18.30
2022-08-07T15:49:13.209Z,18.30
2022-08-07T15:54:34.087Z,18.68
2022-08-07T15:57:02.348Z,18.76
2022-08-07T15:59:40.053Z,19.15
2022-08-07T16:02:21.629Z,19.14
2022-08-07T16:04:57.166Z,19.08
2022-08-07T16:08:31.124Z,19.16
2022-08-07T16:10:18.290Z,19.39
2022-08-07T16:13:00.958Z,19.47
2022-08-07T16:16:06.483Z,19.44
2022-08-07T16:18:49.707Z,19.33
2022-08-07T16:22:01.211Z,19.12
2022-08-07T16:24:35.576Z,19.09
2022-08-07T16:27:26.976Z,19.15
2022-08-07T16:30:31.149Z,19.13
2022-08-07T16:34:01.991Z,19.12
2022-08-07T16:36:19.775Z,19.25
2022-08-07T16:39:33.646Z,19.17
2022-08-07T16:42:29.964Z,19.57
2022-08-07T16:46:20.978Z,19.46
2022-08-07T16:47:57.613Z,19.29
2022-08-07T16:51:20.894Z,19.18
2022-08-07T16:54:09.746Z,19.33
2022-08-07T16:57:15.238Z,19.25
2022-08-07T17:00:16.828Z,18.98
2022-08-07T17:03:17.437Z,18.76
2022-08-07T17:06:30.446Z,18.73
2022-08-07T17:10:06.684Z,18.62
2022-08-07T17:12:34.292Z,18.47
2022-08-07T17:15:15.733Z,18.43
2022-08-07T17:17:51.504Z,18.40
2022-08-07T17:20:35.737Z,18.37
2022-08-07T17:23:21.968Z,18.33
2022-08-07T17:26:00.274Z,18.34
2022-08-07T17:28:53.808Z,18.30
2022-08-07T17:31:44.272Z,18.30
2022-08-07T17:35:08.912Z,18.27
2022-08-07T17:38:05.831Z,18.21
2022-08-07T17:40:50.686Z,18.20
2022-08-07T17:44:01.698Z,18.17
2022-08-07T17:46:53.866Z,18.12
2022-08-07T17:49:30.123Z,18.09
2022-08-07T17:52:01.450Z,18.10
2022-08-07T17:54:54.605Z,18.11
2022-08-07T17:57:58.838Z,18.12
2022-08-07T18:00:33.353Z,18.13
2022-08-07T18:03:18.567Z,18.12
2022-08-07T18:06:01.605Z,18.09
2022-08-07T18:09:00.286Z,18.10
2022-08-07T18:12:16.032Z,18.09
2022-08-07T18:14:37.655Z,18.10
2022-08-07T18:19:02.628Z,18.05
2022-08-07T18:21:06.439Z,18.05
2022-08-07T18:23:43.760Z,18.05
2022-08-07T18:26:15.241Z,17.99
2022-08-07T18:30:07.390Z,17.99
2022-08-07T18:31:57.045Z,17.98
2022-08-07T18:34:53.369Z,17.98
2022-08-07T18:38:57.158Z,17.99
2022-08-07T18:41:08.061Z,17.99
2022-08-07T18:43:59.474Z,18.00
2022-08-07T18:46:35.589Z,17.98
2022-08-07T18:50:35.354Z,18.00
2022-08-07T18:52:54.485Z,18.04
2022-08-07T18:55:56.024Z,18.06
2022-08-07T18:58:51.616Z,18.04
2022-08-07T19:02:17.989Z,18.09
2022-08-07T19:04:28.111Z,18.08
2022-08-07T19:07:15.671Z,18.08
2022-08-07T19:09:57.432Z,18.06
2022-08-07T19:12:31.768Z,18.08
2022-08-07T19:16:02.909Z,18.06
2022-08-07T19:18:10.637Z,18.05
2022-08-07T19:21:10.052Z,18.06
2022-08-07T19:23:57.401Z,18.06
2022-08-07T19:26:39.620Z,18.04
2022-08-07T19:31:04.382Z,18.02
2022-08-07T19:32:18.587Z,17.99
2022-08-07T19:34:58.613Z,17.98
2022-08-07T19:37:25.802Z,17.99
2022-08-07T19:40:16.098Z,17.97
2022-08-07T19:42:45.101Z,17.98
2022-08-07T19:46:04.874Z,18.00
2022-08-07T19:48:18.622Z,18.00
2022-08-07T19:50:53.515Z,17.98
2022-08-07T19:54:35.148Z,17.97
2022-08-07T19:57:24.934Z,17.98
2022-08-07T19:58:57.458Z,17.96
2022-08-07T20:01:24.834Z,17.94
2022-08-07T20:04:32.163Z,17.93
2022-08-07T20:07:00.244Z,17.89
2022-08-07T20:10:33.780Z,17.90
2022-08-07T20:12:34.475Z,17.91
2022-08-07T20:15:09.550Z,17.91
2022-08-07T20:17:44.588Z,17.90
2022-08-07T20:20:29.680Z,17.89
2022-08-07T20:23:01.691Z,17.87
2022-08-07T20:25:51.084Z,17.89
2022-08-07T20:28:20.072Z,17.91
2022-08-07T20:30:47.055Z,17.91
2022-08-07T20:33:24.242Z,17.90
2022-08-07T20:36:05.997Z,17.91
2022-08-07T20:38:33.581Z,17.91
2022-08-07T20:41:03.912Z,17.91
2022-08-07T20:43:33.552Z,17.91
2022-08-07T20:46:28.340Z,17.91
2022-08-07T20:49:54.450Z,17.90
2022-08-07T20:51:35.598Z,17.88
2022-08-07T20:54:09.446Z,17.87
2022-08-07T20:56:46.025Z,17.88
2022-08-07T21:00:05.065Z,17.88
2022-08-07T21:02:31.503Z,17.88
2022-08-07T21:05:00.236Z,17.88
2022-08-07T21:07:28.782Z,17.89
2022-08-07T21:09:59.278Z,17.89
2022-08-07T21:12:31.127Z,17.88
2022-08-07T21:15:01.321Z,17.85
2022-08-07T21:18:02.817Z,17.81
2022-08-07T21:20:30.303Z,17.82
2022-08-07T21:23:08.516Z,17.92
2022-08-07T21:25:56.698Z,17.99
2022-08-07T21:28:48.074Z,18.03
2022-08-07T21:32:42.785Z,17.99
2022-08-07T21:34:33.591Z,17.93
2022-08-07T21:37:20.637Z,17.87
2022-08-07T21:39:57.149Z,17.83
2022-08-07T21:42:46.715Z,17.77
2022-08-07T21:46:08.751Z,17.74
2022-08-07T21:48:33.592Z,17.68
2022-08-07T21:51:07.248Z,17.67
2022-08-07T21:53:52.651Z,17.66
2022-08-07T21:56:47.838Z,17.65
2022-08-07T22:00:04.029Z,17.63
2022-08-07T22:02:47.782Z,17.62
2022-08-07T22:05:21.651Z,17.65
2022-08-07T22:08:07.889Z,17.65
2022-08-07T22:10:38.471Z,17.65
2022-08-07T22:13:13.897Z,17.64
2022-08-07T22:16:40.103Z,17.65
2022-08-07T22:18:58.093Z,17.63
2022-08-07T22:22:01.858Z,17.64
2022-08-07T22:24:33.372Z,17.62
2022-08-07T22:27:05.798Z,17.61
2022-08-07T22:29:48.121Z,17.59
2022-08-07T22:32:39.038Z,17.60
2022-08-07T22:35:11.081Z,17.60
2022-08-07T22:38:02.907Z,17.61
2022-08-07T22:40:56.856Z,17.62
2022-08-07T22:43:40.465Z,17.60
2022-08-07T22:46:42.763Z,17.60
2022-08-07T22:49:33.874Z,17.62
2022-08-07T22:52:43.478Z,17.62
2022-08-07T22:55:36.648Z,17.62
2022-08-07T22:58:21.652Z,17.60
2022-08-07T23:01:09.708Z,17.61
2022-08-07T23:04:06.269Z,17.60
2022-08-07T23:06:59.079Z,17.61
2022-08-07T23:10:03.810Z,17.62
2022-08-07T23:12:50.540Z,17.61
2022-08-07T23:16:06.956Z,17.62
2022-08-07T23:19:38.988Z,17.61
2022-08-07T23:23:09.806Z,17.58
2022-08-07T23:26:10.204Z,17.54
2022-08-07T23:29:42.669Z,17.53
2022-08-07T23:34:22.386Z,17.50
2022-08-07T23:35:19.775Z,17.49
2022-08-07T23:38:19.055Z,17.51
2022-08-07T23:41:06.509Z,17.52
2022-08-07T23:44:03.705Z,17.51
2022-08-07T23:46:55.840Z,17.48
2022-08-07T23:49:50.117Z,17.47
2022-08-07T23:53:12.052Z,17.47
2022-08-07T23:55:55.899Z,17.50
2022-08-07T23:58:36.301Z,17.48
